Terminal Aerodrome Forecast
Issued by NWS Blacksburg, VA

Current Version | Previous Version | Text Only | Print | Product List | Glossary Off
Versions: 1 2 3 4 5 6 7 8 9 10 11 12 13 14 15 16 17 18 19 20 21 22 23 24 25 26 27 28 29 30 31 32 33 34 35 36 37 38 39 40

000
FTUS41 KRNK 171720
TAFBLF
TAF
KBLF 171720Z 1718/1818 29009KT P6SM SCT030
     FM172300 31004KT P6SM SCT025
     FM180300 32004KT 4SM BR BKN015
     FM180800 VRB03KT 2SM BR OVC007
     FM181330 05005KT P6SM SCT040=

USA.gov is the U.S. government's official web portal to all federal, state and local government web resources and services.